createdAt,value
2023-05-03T00:01:33.844Z,10.80
2023-05-03T00:04:03.829Z,10.73
2023-05-03T00:06:34.340Z,10.56
2023-05-03T00:09:06.354Z,10.49
2023-05-03T00:11:37.022Z,10.56
2023-05-03T00:14:06.196Z,10.48
2023-05-03T00:16:36.538Z,10.46
2023-05-03T00:19:30.431Z,10.44
2023-05-03T00:22:01.587Z,10.34
2023-05-03T00:24:32.438Z,10.16
2023-05-03T00:27:02.034Z,10.31
2023-05-03T00:29:31.036Z,10.19
2023-05-03T00:32:00.113Z,10.08
2023-05-03T00:34:30.455Z,10.19
2023-05-03T00:37:01.289Z,10.04
2023-05-03T00:39:33.321Z,9.92
2023-05-03T00:42:07.533Z,9.87
2023-05-03T00:44:36.354Z,9.93
2023-05-03T00:47:07.220Z,9.83
2023-05-03T00:49:37.982Z,9.77
2023-05-03T00:52:09.870Z,9.70
2023-05-03T00:54:43.829Z,9.77
2023-05-03T00:57:13.221Z,9.72
2023-05-03T00:59:43.365Z,9.64
2023-05-03T01:02:12.241Z,9.59
2023-05-03T01:04:44.138Z,9.57
2023-05-03T01:07:25.610Z,9.42
2023-05-03T01:10:06.998Z,9.37
2023-05-03T01:12:50.758Z,9.46
2023-05-03T01:15:40.819Z,9.43
2023-05-03T01:18:17.234Z,9.26
2023-05-03T01:20:52.605Z,9.28
2023-05-03T01:23:31.228Z,9.57
2023-05-03T01:26:02.009Z,9.23
2023-05-03T01:28:30.937Z,9.12
2023-05-03T01:31:00.660Z,9.11
2023-05-03T01:33:41.811Z,9.11
2023-05-03T01:36:19.732Z,9.27
2023-05-03T01:38:50.122Z,9.22
2023-05-03T01:41:22.303Z,9.19
2023-05-03T01:43:56.506Z,9.21
2023-05-03T01:46:27.670Z,9.12
2023-05-03T01:48:57.562Z,8.93
2023-05-03T01:51:28.220Z,9.10
2023-05-03T01:53:58.254Z,8.92
2023-05-03T01:56:30.880Z,9.00
2023-05-03T01:59:01.878Z,8.86
2023-05-03T02:01:31.248Z,8.85
2023-05-03T02:04:00.235Z,8.80
2023-05-03T02:06:30.918Z,8.81
2023-05-03T02:09:00.554Z,8.81
2023-05-03T02:11:33.966Z,8.88
2023-05-03T02:14:04.118Z,8.91
2023-05-03T02:16:35.785Z,8.84
2023-05-03T02:19:05.865Z,8.78
2023-05-03T02:21:36.733Z,8.69
2023-05-03T02:24:06.735Z,8.64
2023-05-03T02:26:39.234Z,8.71
2023-05-03T02:29:08.353Z,8.91
2023-05-03T02:31:37.571Z,8.89
2023-05-03T02:34:06.258Z,8.85
2023-05-03T02:36:35.042Z,8.54
2023-05-03T02:39:03.808Z,8.56
2023-05-03T02:41:34.363Z,8.65
2023-05-03T02:44:10.569Z,8.48
2023-05-03T02:46:40.831Z,8.68
2023-05-03T02:49:09.662Z,8.69
2023-05-03T02:51:38.975Z,8.60
2023-05-03T02:54:08.348Z,8.49
2023-05-03T02:56:38.322Z,8.49
2023-05-03T02:59:09.791Z,8.52
2023-05-03T03:01:39.884Z,8.48
2023-05-03T03:04:10.245Z,8.46
2023-05-03T03:06:41.126Z,8.38
2023-05-03T03:09:14.748Z,8.40
2023-05-03T03:11:43.765Z,8.48
2023-05-03T03:14:14.590Z,8.24
2023-05-03T03:16:44.503Z,8.34
2023-05-03T03:19:15.165Z,8.21
2023-05-03T03:21:44.524Z,8.25
2023-05-03T03:24:13.138Z,8.38
2023-05-03T03:26:42.358Z,8.45
2023-05-03T03:29:13.268Z,8.36
2023-05-03T03:31:42.217Z,8.41
2023-05-03T03:34:12.385Z,8.35
2023-05-03T03:36:42.705Z,8.24
2023-05-03T03:39:12.386Z,8.27
2023-05-03T03:41:41.508Z,8.15
2023-05-03T03:44:10.054Z,8.06
2023-05-03T03:46:41.909Z,8.16
2023-05-03T03:49:11.687Z,8.16
2023-05-03T03:51:40.885Z,8.16
2023-05-03T03:54:09.377Z,8.13
2023-05-03T03:56:38.212Z,8.13
2023-05-03T03:59:08.106Z,8.16
2023-05-03T04:01:37.580Z,7.96
2023-05-03T04:04:08.118Z,8.06
2023-05-03T04:06:38.052Z,7.95
2023-05-03T04:09:07.572Z,8.11
2023-05-03T04:11:36.458Z,8.00
2023-05-03T04:14:06.362Z,7.94
2023-05-03T04:16:37.085Z,7.94
2023-05-03T04:19:08.155Z,7.95
2023-05-03T04:21:38.162Z,7.83
2023-05-03T04:24:10.675Z,7.85
2023-05-03T04:26:43.637Z,7.82
2023-05-03T04:29:16.923Z,7.89
2023-05-03T04:31:46.033Z,7.87
2023-05-03T04:34:17.376Z,7.82
2023-05-03T04:36:48.067Z,7.85
2023-05-03T04:39:18.494Z,7.88
2023-05-03T04:41:50.937Z,7.83
2023-05-03T04:44:22.430Z,7.82
2023-05-03T04:46:51.927Z,7.81
2023-05-03T04:49:22.890Z,7.78
2023-05-03T04:51:51.760Z,7.89
2023-05-03T04:54:21.560Z,7.86
2023-05-03T04:56:50.609Z,7.94
2023-05-03T04:59:21.342Z,7.90
2023-05-03T05:01:51.908Z,8.02
2023-05-03T05:04:22.982Z,8.05
2023-05-03T05:06:56.811Z,8.13
2023-05-03T05:09:31.840Z,8.06
2023-05-03T05:12:07.367Z,8.10
2023-05-03T05:14:37.002Z,8.13
2023-05-03T05:17:06.103Z,8.29
2023-05-03T05:19:37.534Z,8.34
2023-05-03T05:22:06.704Z,8.43
2023-05-03T05:24:35.882Z,8.54
2023-05-03T05:27:09.646Z,8.70
2023-05-03T05:29:41.743Z,8.78
2023-05-03T05:32:13.261Z,8.98
2023-05-03T05:34:51.834Z,9.11
2023-05-03T05:37:22.317Z,9.20
2023-05-03T05:39:51.931Z,9.42
2023-05-03T05:42:27.661Z,9.43
2023-05-03T05:44:58.162Z,9.43
2023-05-03T05:47:28.594Z,9.81
2023-05-03T05:50:02.283Z,9.42
2023-05-03T05:52:31.786Z,9.97
2023-05-03T05:55:08.335Z,10.03
2023-05-03T05:57:37.155Z,9.81
2023-05-03T06:00:14.859Z,10.42
2023-05-03T06:02:43.933Z,10.57
2023-05-03T06:05:15.200Z,10.67
2023-05-03T06:07:44.168Z,10.97
2023-05-03T06:10:14.440Z,11.01
2023-05-03T06:12:43.929Z,11.08
2023-05-03T06:15:14.970Z,11.46
2023-05-03T06:17:45.628Z,11.26
2023-05-03T06:20:19.784Z,11.34
2023-05-03T06:22:48.669Z,11.19
2023-05-03T06:25:18.122Z,11.51
2023-05-03T06:27:47.160Z,11.36
2023-05-03T06:30:16.689Z,11.52
2023-05-03T06:32:45.901Z,11.65
2023-05-03T06:35:15.765Z,12.04
2023-05-03T06:37:50.196Z,11.47
2023-05-03T06:40:19.399Z,12.25
2023-05-03T06:42:48.875Z,11.87
2023-05-03T06:45:18.637Z,12.02
2023-05-03T06:47:47.490Z,12.67
2023-05-03T06:50:16.912Z,12.21
2023-05-03T06:52:48.578Z,12.60
2023-05-03T06:55:17.237Z,12.41
2023-05-03T06:57:47.756Z,13.16
2023-05-03T07:00:19.465Z,12.56
2023-05-03T07:02:49.021Z,12.97
2023-05-03T07:05:19.772Z,13.15
2023-05-03T07:07:50.668Z,12.87
2023-05-03T07:10:19.537Z,13.09
2023-05-03T07:12:48.311Z,13.68
2023-05-03T07:15:17.360Z,12.98
2023-05-03T07:17:47.533Z,13.61
2023-05-03T07:20:16.710Z,13.33
2023-05-03T07:22:47.121Z,13.46
2023-05-03T07:25:19.333Z,13.28
2023-05-03T07:27:49.594Z,13.40
2023-05-03T07:30:22.732Z,13.52
2023-05-03T07:32:52.426Z,12.85
2023-05-03T07:35:23.433Z,13.37
2023-05-03T07:37:56.288Z,13.71
2023-05-03T07:40:32.330Z,13.73
2023-05-03T07:43:07.459Z,13.39
2023-05-03T07:45:36.919Z,14.05
2023-05-03T07:48:06.415Z,14.12
2023-05-03T07:50:39.688Z,13.97
2023-05-03T07:53:09.705Z,14.04
2023-05-03T07:55:43.924Z,14.58
2023-05-03T07:58:14.054Z,14.20
2023-05-03T08:00:42.945Z,13.45
2023-05-03T08:03:13.854Z,14.22
2023-05-03T08:05:44.416Z,14.45
2023-05-03T08:08:14.165Z,14.53
2023-05-03T08:10:45.103Z,14.35
2023-05-03T08:13:15.671Z,14.30
2023-05-03T08:15:47.356Z,14.37
2023-05-03T08:18:17.700Z,14.59
2023-05-03T08:20:49.770Z,13.97
2023-05-03T08:23:18.171Z,14.69
2023-05-03T08:25:49.435Z,13.71
2023-05-03T08:28:19.109Z,14.69
2023-05-03T08:30:49.617Z,15.13
2023-05-03T08:33:20.159Z,15.51
2023-05-03T08:35:52.078Z,14.74
2023-05-03T08:38:21.779Z,15.33
2023-05-03T08:41:00.200Z,16.07
2023-05-03T08:43:34.312Z,15.82
2023-05-03T08:46:03.517Z,15.69
2023-05-03T08:48:34.478Z,16.02
2023-05-03T08:51:06.913Z,14.99
2023-05-03T08:53:35.914Z,15.90
2023-05-03T08:56:12.781Z,15.73
2023-05-03T08:58:41.580Z,16.02
2023-05-03T09:01:11.846Z,15.95
2023-05-03T09:03:41.860Z,15.84
2023-05-03T09:06:23.095Z,15.46
2023-05-03T09:08:52.341Z,16.17
2023-05-03T09:11:29.175Z,16.46
2023-05-03T09:14:12.601Z,15.80
2023-05-03T09:16:42.211Z,17.00
2023-05-03T09:19:16.906Z,17.17
2023-05-03T09:21:48.816Z,17.38
2023-05-03T09:24:21.143Z,17.57
2023-05-03T09:26:54.515Z,16.80
2023-05-03T09:29:36.298Z,16.30
2023-05-03T09:32:08.870Z,17.37
2023-05-03T09:34:39.387Z,17.63
2023-05-03T09:37:08.993Z,17.63
2023-05-03T09:39:38.972Z,17.30
2023-05-03T09:42:18.978Z,16.50
2023-05-03T09:44:53.463Z,17.48
2023-05-03T09:47:28.083Z,16.65
2023-05-03T09:50:03.917Z,17.86
2023-05-03T09:52:35.771Z,18.11
2023-05-03T09:55:06.602Z,16.85
2023-05-03T09:57:48.013Z,18.11
2023-05-03T10:00:22.232Z,17.82
2023-05-03T10:02:55.634Z,17.88
2023-05-03T10:05:29.628Z,18.21
2023-05-03T10:08:02.169Z,18.17
2023-05-03T10:10:34.356Z,17.59
2023-05-03T10:13:08.944Z,18.19
2023-05-03T10:15:43.328Z,18.22
2023-05-03T10:18:17.819Z,18.00
2023-05-03T10:20:57.807Z,17.88
2023-05-03T10:23:28.039Z,16.83
2023-05-03T10:26:17.693Z,18.24
2023-05-03T10:28:48.419Z,18.44
2023-05-03T10:31:47.305Z,18.80
2023-05-03T10:34:25.216Z,19.07
2023-05-03T10:36:57.472Z,18.25
2023-05-03T10:39:31.829Z,17.95
2023-05-03T10:42:08.357Z,18.72
2023-05-03T10:44:43.476Z,18.28
2023-05-03T10:47:16.065Z,19.28
2023-05-03T10:49:46.283Z,19.36
2023-05-03T10:52:52.789Z,19.28
2023-05-03T10:55:28.127Z,19.27
2023-05-03T10:58:00.917Z,19.06
2023-05-03T11:00:41.419Z,19.07
2023-05-03T11:03:35.850Z,19.40
2023-05-03T11:08:50.532Z,19.51
2023-05-03T11:11:19.416Z,20.06
2023-05-03T11:13:48.791Z,20.08
2023-05-03T11:16:23.208Z,20.34
2023-05-03T11:18:54.326Z,19.36
2023-05-03T11:21:24.851Z,19.64
2023-05-03T11:24:04.602Z,20.24
2023-05-03T11:26:39.454Z,19.57
2023-05-03T11:29:13.439Z,19.68
2023-05-03T11:31:46.694Z,20.32
2023-05-03T11:34:17.815Z,19.67
2023-05-03T11:36:47.940Z,20.77
2023-05-03T11:39:18.717Z,21.27
2023-05-03T11:42:07.686Z,20.37
2023-05-03T11:44:37.999Z,19.91
2023-05-03T11:47:10.841Z,20.74
2023-05-03T11:49:41.103Z,20.38
2023-05-03T11:52:16.763Z,20.03
2023-05-03T11:54:45.746Z,21.00
2023-05-03T11:57:16.259Z,21.09
2023-05-03T11:59:47.633Z,21.18
2023-05-03T12:02:20.639Z,21.75
2023-05-03T12:04:54.723Z,21.98
2023-05-03T12:07:25.644Z,20.71
2023-05-03T12:10:06.561Z,22.15
2023-05-03T12:12:48.079Z,21.87
2023-05-03T12:15:31.205Z,21.46
2023-05-03T12:18:09.181Z,20.91
2023-05-03T12:23:16.163Z,20.67
2023-05-03T12:25:49.231Z,21.87
2023-05-03T12:28:21.202Z,21.89
2023-05-03T12:30:53.286Z,22.48
2023-05-03T12:33:28.423Z,22.31
2023-05-03T12:35:59.322Z,22.93
2023-05-03T12:38:37.512Z,22.10
2023-05-03T12:41:08.969Z,21.87
2023-05-03T12:43:38.698Z,22.29
2023-05-03T12:48:48.019Z,23.16
2023-05-03T12:51:20.054Z,22.73
2023-05-03T12:53:55.508Z,23.37
2023-05-03T12:56:25.910Z,23.58
2023-05-03T13:06:42.051Z,24.07
2023-05-03T13:09:19.295Z,23.66
2023-05-03T13:11:53.044Z,22.69
2023-05-03T13:14:25.798Z,22.98
2023-05-03T13:16:56.050Z,23.77
2023-05-03T13:19:28.198Z,24.37
2023-05-03T13:21:57.110Z,24.45
2023-05-03T13:24:27.499Z,23.93
2023-05-03T13:26:58.256Z,24.69
2023-05-03T13:29:31.774Z,24.84
2023-05-03T13:32:02.894Z,24.76
2023-05-03T13:34:34.854Z,24.88
2023-05-03T13:37:05.386Z,25.01
2023-05-03T13:39:36.218Z,24.84
2023-05-03T13:42:06.190Z,24.87
2023-05-03T13:44:36.120Z,24.90
2023-05-03T13:47:08.395Z,25.12
2023-05-03T13:49:39.269Z,25.35
2023-05-03T13:52:10.597Z,25.48
2023-05-03T13:54:42.835Z,26.65
2023-05-03T13:57:15.226Z,25.66
2023-05-03T13:59:50.146Z,26.92
2023-05-03T14:02:19.497Z,27.26
2023-05-03T14:04:53.657Z,26.24
2023-05-03T14:07:23.130Z,25.81
2023-05-03T14:09:52.377Z,25.44
2023-05-03T14:12:22.991Z,25.56
2023-05-03T14:14:54.060Z,25.98
2023-05-03T14:17:23.263Z,26.12
2023-05-03T14:19:53.494Z,26.58
2023-05-03T14:22:23.512Z,27.10
2023-05-03T14:24:53.134Z,27.22
2023-05-03T14:27:22.380Z,25.93
2023-05-03T14:29:51.727Z,27.61
2023-05-03T14:32:23.574Z,27.70
2023-05-03T14:35:00.136Z,28.02
2023-05-03T14:37:29.242Z,27.80
2023-05-03T14:39:59.680Z,28.37
2023-05-03T14:42:33.431Z,28.69
2023-05-03T14:45:05.406Z,28.66
2023-05-03T14:47:34.582Z,28.83
2023-05-03T14:50:12.041Z,28.40
2023-05-03T14:52:40.913Z,28.42
2023-05-03T14:55:12.115Z,29.37
2023-05-03T14:57:43.759Z,28.78
2023-05-03T15:00:21.140Z,28.26
2023-05-03T15:02:56.367Z,28.50
2023-05-03T15:05:28.265Z,29.30
2023-05-03T15:07:57.951Z,29.07
2023-05-03T15:10:28.989Z,28.80
2023-05-03T15:12:58.757Z,29.92
2023-05-03T15:15:29.089Z,28.89
2023-05-03T15:18:00.533Z,28.72
2023-05-03T15:20:32.668Z,28.73
2023-05-03T15:23:07.798Z,29.94
2023-05-03T15:25:39.505Z,28.73
2023-05-03T15:28:08.536Z,29.69
2023-05-03T15:30:38.173Z,29.39
2023-05-03T15:33:12.140Z,29.51
2023-05-03T15:35:48.712Z,29.33
2023-05-03T15:38:18.657Z,29.73
2023-05-03T15:40:47.679Z,30.23
2023-05-03T15:43:20.105Z,28.51
2023-05-03T15:45:50.112Z,29.36
2023-05-03T15:48:20.817Z,29.42
2023-05-03T15:50:52.535Z,30.07
2023-05-03T15:53:22.349Z,29.60
2023-05-03T15:55:53.021Z,29.48
2023-05-03T15:58:27.519Z,30.32
2023-05-03T16:00:57.199Z,28.66
2023-05-03T16:03:28.804Z,29.95
2023-05-03T16:06:00.998Z,29.57
2023-05-03T16:08:32.847Z,28.32
2023-05-03T16:11:02.078Z,28.50
2023-05-03T16:13:35.078Z,28.81
2023-05-03T16:16:07.068Z,28.35
2023-05-03T16:18:39.774Z,28.70
2023-05-03T16:21:11.736Z,27.92
2023-05-03T16:23:40.954Z,28.38
2023-05-03T16:26:15.186Z,27.86
2023-05-03T16:28:48.159Z,27.21
2023-05-03T16:31:20.930Z,26.56
2023-05-03T16:33:50.249Z,26.29
2023-05-03T16:36:23.098Z,25.73
2023-05-03T16:38:52.484Z,26.08
2023-05-03T16:41:21.619Z,25.42
2023-05-03T16:43:50.804Z,25.46
2023-05-03T16:46:19.909Z,24.93
2023-05-03T16:48:48.686Z,24.01
2023-05-03T16:51:24.038Z,22.65
2023-05-03T16:53:53.631Z,22.97
2023-05-03T16:56:25.798Z,23.23
2023-05-03T16:58:56.945Z,22.63
2023-05-03T17:01:27.081Z,21.87
2023-05-03T17:03:59.411Z,20.78
2023-05-03T17:06:30.659Z,21.54
2023-05-03T17:08:59.613Z,20.38
2023-05-03T17:11:28.260Z,20.21
2023-05-03T17:13:57.837Z,20.12
2023-05-03T17:16:29.821Z,19.75
2023-05-03T17:18:59.030Z,18.93
2023-05-03T17:25:18.531Z,19.33
2023-05-03T17:27:47.097Z,19.00
2023-05-03T17:30:20.814Z,18.86
2023-05-03T17:32:51.992Z,18.38
2023-05-03T17:35:22.423Z,18.14
2023-05-03T17:37:51.840Z,18.80
2023-05-03T17:40:22.575Z,18.40
2023-05-03T17:42:55.568Z,17.52
2023-05-03T17:45:27.754Z,18.15
2023-05-03T17:47:56.382Z,18.48
2023-05-03T17:50:25.503Z,18.64
2023-05-03T17:52:55.656Z,18.26
2023-05-03T17:55:27.905Z,18.64
2023-05-03T17:57:57.001Z,18.39
2023-05-03T18:00:28.114Z,18.17
2023-05-03T18:02:57.134Z,18.03
2023-05-03T18:05:26.743Z,18.44
2023-05-03T18:07:56.247Z,17.76
2023-05-03T18:10:26.515Z,17.81
2023-05-03T18:12:58.766Z,17.84
2023-05-03T18:15:32.016Z,17.77
2023-05-03T18:18:03.099Z,17.80
2023-05-03T18:20:36.668Z,17.31
2023-05-03T18:23:05.751Z,17.65
2023-05-03T18:25:42.552Z,17.32
2023-05-03T18:31:05.156Z,16.96
2023-05-03T18:33:44.271Z,17.23
2023-05-03T18:36:18.041Z,17.03
2023-05-03T18:38:57.197Z,17.17
2023-05-03T18:41:29.839Z,17.02
2023-05-03T18:44:01.991Z,16.78
2023-05-03T18:46:32.163Z,16.62
2023-05-03T18:49:03.344Z,16.76
2023-05-03T18:51:33.913Z,16.88
2023-05-03T18:54:08.517Z,16.78
2023-05-03T18:56:41.016Z,16.58
2023-05-03T18:59:11.880Z,16.83
2023-05-03T19:01:43.692Z,16.52
2023-05-03T19:04:15.426Z,16.39
2023-05-03T19:06:45.178Z,16.40
2023-05-03T19:09:17.510Z,16.22
2023-05-03T19:11:50.933Z,16.05
2023-05-03T19:14:22.380Z,16.29
2023-05-03T19:16:56.340Z,16.05
2023-05-03T19:19:26.487Z,16.02
2023-05-03T19:21:56.408Z,15.78
2023-05-03T19:24:27.587Z,15.76
2023-05-03T19:26:58.503Z,15.51
2023-05-03T19:29:29.933Z,15.88
2023-05-03T19:31:59.214Z,15.65
2023-05-03T19:34:31.500Z,15.57
2023-05-03T19:37:03.203Z,15.24
2023-05-03T19:39:38.141Z,15.52
2023-05-03T19:42:11.290Z,15.57
2023-05-03T19:44:42.458Z,15.16
2023-05-03T19:47:11.665Z,15.06
2023-05-03T19:49:41.544Z,14.63
2023-05-03T19:52:11.370Z,14.79
2023-05-03T19:54:41.890Z,14.77
2023-05-03T19:57:12.187Z,14.95
2023-05-03T19:59:41.506Z,14.29
2023-05-03T20:02:11.458Z,14.67
2023-05-03T20:04:46.958Z,14.86
2023-05-03T20:07:17.374Z,14.40
2023-05-03T20:09:47.699Z,14.56
2023-05-03T20:12:18.204Z,14.56
2023-05-03T20:14:47.786Z,14.35
2023-05-03T20:17:16.537Z,14.54
2023-05-03T20:19:45.423Z,14.65
2023-05-03T20:22:14.714Z,14.41
2023-05-03T20:24:44.000Z,14.15
2023-05-03T20:27:13.825Z,14.29
2023-05-03T20:29:45.616Z,14.42
2023-05-03T20:32:15.968Z,14.26
2023-05-03T20:34:46.854Z,13.88
2023-05-03T20:37:15.875Z,13.98
2023-05-03T20:39:45.814Z,14.22
2023-05-03T20:42:15.719Z,13.76
2023-05-03T20:44:46.666Z,14.03
2023-05-03T20:47:15.786Z,13.54
2023-05-03T20:49:44.515Z,13.58
2023-05-03T20:52:14.089Z,13.40
2023-05-03T20:54:45.103Z,13.58
2023-05-03T20:57:16.973Z,13.45
2023-05-03T20:59:48.676Z,13.42
2023-05-03T21:02:17.622Z,13.54
2023-05-03T21:04:46.305Z,13.48
2023-05-03T21:07:17.157Z,13.18
2023-05-03T21:09:48.390Z,13.26
2023-05-03T21:12:18.352Z,12.82
2023-05-03T21:14:51.530Z,13.01
2023-05-03T21:17:22.594Z,13.00
2023-05-03T21:19:54.242Z,12.82
2023-05-03T21:22:23.483Z,12.91
2023-05-03T21:24:53.190Z,13.02
2023-05-03T21:27:26.531Z,12.99
2023-05-03T21:30:02.128Z,12.91
2023-05-03T21:32:33.620Z,12.79
2023-05-03T21:35:02.673Z,12.69
2023-05-03T21:37:32.385Z,12.90
2023-05-03T21:40:13.015Z,12.89
2023-05-03T21:42:42.348Z,12.87
2023-05-03T21:45:15.152Z,12.79
2023-05-03T21:47:45.228Z,12.85
2023-05-03T21:50:14.239Z,12.54
2023-05-03T21:52:44.256Z,12.45
2023-05-03T21:55:18.946Z,12.60
2023-05-03T21:57:47.994Z,12.45
2023-05-03T22:00:21.007Z,12.29
2023-05-03T22:02:53.758Z,12.16
2023-05-03T22:05:22.154Z,12.15
2023-05-03T22:07:53.602Z,12.23
2023-05-03T22:10:23.277Z,12.38
2023-05-03T22:12:54.878Z,12.31
2023-05-03T22:15:25.059Z,12.34
2023-05-03T22:17:53.798Z,12.12
2023-05-03T22:20:23.343Z,12.29
2023-05-03T22:22:55.012Z,11.97
2023-05-03T22:25:25.017Z,12.42
2023-05-03T22:27:54.910Z,11.86
2023-05-03T22:30:26.953Z,12.17
2023-05-03T22:32:55.964Z,12.36
2023-05-03T22:35:29.534Z,12.32
2023-05-03T22:37:59.813Z,12.25
2023-05-03T22:40:30.576Z,12.05
2023-05-03T22:43:00.163Z,12.18
2023-05-03T22:45:31.638Z,12.09
2023-05-03T22:48:01.780Z,12.03
2023-05-03T22:50:33.646Z,11.91
2023-05-03T22:53:03.119Z,11.68
2023-05-03T22:55:32.284Z,11.54
2023-05-03T22:58:02.457Z,11.77
2023-05-03T23:00:34.961Z,11.46
2023-05-03T23:03:05.416Z,11.60
2023-05-03T23:05:34.556Z,11.42
2023-05-03T23:08:03.499Z,11.77
2023-05-03T23:10:32.690Z,11.29
2023-05-03T23:13:03.261Z,11.63
2023-05-03T23:15:34.657Z,11.33
2023-05-03T23:18:07.233Z,11.27
2023-05-03T23:20:35.818Z,11.23
2023-05-03T23:23:09.323Z,11.61
2023-05-03T23:25:38.379Z,11.25
2023-05-03T23:28:07.511Z,11.38
2023-05-03T23:30:44.683Z,11.39
2023-05-03T23:33:15.558Z,11.09
2023-05-03T23:35:44.897Z,11.46
2023-05-03T23:38:15.272Z,11.00
2023-05-03T23:40:44.840Z,11.35
2023-05-03T23:43:15.763Z,11.19
2023-05-03T23:45:46.342Z,11.24
2023-05-03T23:48:16.678Z,11.01
2023-05-03T23:50:48.624Z,11.23
2023-05-03T23:53:19.979Z,10.97
2023-05-03T23:55:49.113Z,10.62
2023-05-03T23:58:18.354Z,10.89
